sensor_id;sensor_type;location;lat;lon;timestamp;pressure;altitude;pressure_sealevel;temperature;humidity
74228;BME280;62587;52.352;5.006;2022-11-20T00:00:55;101333.41;;;20.61;35.13
74228;BME280;62587;52.352;5.006;2022-11-20T00:03:20;101334.22;;;20.61;34.90
74228;BME280;62587;52.352;5.006;2022-11-20T00:05:46;101341.38;;;20.61;34.59
74228;BME280;62587;52.352;5.006;2022-11-20T00:08:11;101343.53;;;20.54;36.10
74228;BME280;62587;52.352;5.006;2022-11-20T00:10:38;101339.19;;;20.53;35.65
74228;BME280;62587;52.352;5.006;2022-11-20T00:13:04;101336.72;;;20.50;35.55
74228;BME280;62587;52.352;5.006;2022-11-20T00:15:30;101337.88;;;20.46;35.22
74228;BME280;62587;52.352;5.006;2022-11-20T00:17:55;101337.09;;;20.44;35.34
74228;BME280;62587;52.352;5.006;2022-11-20T00:20:20;101343.19;;;20.46;35.76
74228;BME280;62587;52.352;5.006;2022-11-20T00:22:46;101334.34;;;20.46;35.35
74228;BME280;62587;52.352;5.006;2022-11-20T00:25:11;101338.63;;;20.48;35.21
74228;BME280;62587;52.352;5.006;2022-11-20T00:27:37;101332.44;;;20.48;35.17
74228;BME280;62587;52.352;5.006;2022-11-20T00:30:03;101327.31;;;20.45;35.20
74228;BME280;62587;52.352;5.006;2022-11-20T00:32:29;101321.91;;;20.46;35.43
74228;BME280;62587;52.352;5.006;2022-11-20T00:34:54;101328.19;;;20.45;35.15
74228;BME280;62587;52.352;5.006;2022-11-20T00:37:20;101325.53;;;20.45;35.50
74228;BME280;62587;52.352;5.006;2022-11-20T00:39:45;101323.03;;;20.42;35.26
74228;BME280;62587;52.352;5.006;2022-11-20T00:42:10;101320.50;;;20.41;35.52
74228;BME280;62587;52.352;5.006;2022-11-20T00:44:36;101317.94;;;20.39;35.30
74228;BME280;62587;52.352;5.006;2022-11-20T00:47:01;101315.28;;;20.39;35.30
74228;BME280;62587;52.352;5.006;2022-11-20T00:49:26;101316.31;;;20.37;35.34
74228;BME280;62587;52.352;5.006;2022-11-20T00:51:52;101314.50;;;20.37;35.73
74228;BME280;62587;52.352;5.006;2022-11-20T00:54:17;101307.69;;;20.33;35.35
74228;BME280;62587;52.352;5.006;2022-11-20T00:56:42;101314.72;;;20.34;35.29
74228;BME280;62587;52.352;5.006;2022-11-20T00:59:09;101313.00;;;20.33;35.53
74228;BME280;62587;52.352;5.006;2022-11-20T01:01:35;101306.72;;;20.34;35.69
74228;BME280;62587;52.352;5.006;2022-11-20T01:04:01;101311.09;;;20.35;36.33
74228;BME280;62587;52.352;5.006;2022-11-20T01:06:29;101310.16;;;20.36;36.84
74228;BME280;62587;52.352;5.006;2022-11-20T01:08:58;101312.06;;;20.34;37.50
74228;BME280;62587;52.352;5.006;2022-11-20T01:11:28;101321.94;;;20.32;37.74
74228;BME280;62587;52.352;5.006;2022-11-20T01:13:55;101313.00;;;20.33;37.83
74228;BME280;62587;52.352;5.006;2022-11-20T01:18:51;101321.25;;;20.29;38.11
74228;BME280;62587;52.352;5.006;2022-11-20T01:21:20;101326.13;;;20.22;38.39
74228;BME280;62587;52.352;5.006;2022-11-20T01:23:47;101322.66;;;20.20;38.90
74228;BME280;62587;52.352;5.006;2022-11-20T01:26:15;101317.00;;;20.26;38.57
74228;BME280;62587;52.352;5.006;2022-11-20T01:28:41;101307.50;;;20.22;38.67
74228;BME280;62587;52.352;5.006;2022-11-20T01:34:12;101296.56;;;20.13;38.68
74228;BME280;62587;52.352;5.006;2022-11-20T01:36:38;101295.59;;;20.14;39.23
74228;BME280;62587;52.352;5.006;2022-11-20T01:39:07;101297.22;;;20.16;39.08
74228;BME280;62587;52.352;5.006;2022-11-20T01:41:33;101295.97;;;20.22;38.50
74228;BME280;62587;52.352;5.006;2022-11-20T01:44:40;101307.41;;;20.24;38.40
74228;BME280;62587;52.352;5.006;2022-11-20T01:47:06;101295.72;;;20.26;38.18
74228;BME280;62587;52.352;5.006;2022-11-20T01:49:55;101285.75;;;20.30;38.12
74228;BME280;62587;52.352;5.006;2022-11-20T01:52:34;101289.91;;;20.34;38.09
74228;BME280;62587;52.352;5.006;2022-11-20T01:55:10;101281.84;;;20.35;38.01
74228;BME280;62587;52.352;5.006;2022-11-20T01:57:38;101274.25;;;20.29;38.24
74228;BME280;62587;52.352;5.006;2022-11-20T02:00:09;101282.13;;;20.31;38.18
74228;BME280;62587;52.352;5.006;2022-11-20T02:02:36;101278.31;;;20.35;38.34
74228;BME280;62587;52.352;5.006;2022-11-20T02:05:10;101277.56;;;20.33;38.69
74228;BME280;62587;52.352;5.006;2022-11-20T02:07:37;101279.16;;;20.35;38.09
74228;BME280;62587;52.352;5.006;2022-11-20T02:10:02;101272.72;;;20.39;38.19
74228;BME280;62587;52.352;5.006;2022-11-20T02:12:28;101268.91;;;20.43;37.88
74228;BME280;62587;52.352;5.006;2022-11-20T02:15:11;101268.91;;;20.43;37.98
74228;BME280;62587;52.352;5.006;2022-11-20T02:17:37;101265.19;;;20.46;37.78
74228;BME280;62587;52.352;5.006;2022-11-20T02:20:03;101265.09;;;20.47;37.99
74228;BME280;62587;52.352;5.006;2022-11-20T02:22:38;101267.69;;;20.49;37.31
74228;BME280;62587;52.352;5.006;2022-11-20T02:25:07;101264.16;;;20.48;37.73
74228;BME280;62587;52.352;5.006;2022-11-20T02:27:34;101264.03;;;20.50;37.49
74228;BME280;62587;52.352;5.006;2022-11-20T02:30:04;101265.84;;;20.49;37.56
74228;BME280;62587;52.352;5.006;2022-11-20T02:32:35;101262.34;;;20.49;37.38
74228;BME280;62587;52.352;5.006;2022-11-20T02:37:44;101266.69;;;20.50;37.27
74228;BME280;62587;52.352;5.006;2022-11-20T02:40:11;101261.56;;;20.47;37.24
74228;BME280;62587;52.352;5.006;2022-11-20T02:42:37;101266.81;;;20.48;37.33
74228;BME280;62587;52.352;5.006;2022-11-20T02:45:04;101262.44;;;20.47;37.28
74228;BME280;62587;52.352;5.006;2022-11-20T02:47:29;101255.31;;;20.48;37.17
74228;BME280;62587;52.352;5.006;2022-11-20T02:49:55;101265.84;;;20.49;37.12
74228;BME280;62587;52.352;5.006;2022-11-20T02:52:20;101262.34;;;20.49;37.35
74228;BME280;62587;52.352;5.006;2022-11-20T02:54:45;101256.25;;;20.47;37.31
74228;BME280;62587;52.352;5.006;2022-11-20T02:57:11;101256.16;;;20.48;37.30
74228;BME280;62587;52.352;5.006;2022-11-20T02:59:36;101254.38;;;20.49;37.41
74228;BME280;62587;52.352;5.006;2022-11-20T03:02:01;101246.47;;;20.47;37.33
74228;BME280;62587;52.352;5.006;2022-11-20T03:04:27;101250.00;;;20.48;37.02
74228;BME280;62587;52.352;5.006;2022-11-20T03:06:52;101245.63;;;20.47;37.06
74228;BME280;62587;52.352;5.006;2022-11-20T03:09:17;101247.44;;;20.46;37.20
74228;BME280;62587;52.352;5.006;2022-11-20T03:11:42;101241.25;;;20.46;37.08
74228;BME280;62587;52.352;5.006;2022-11-20T03:14:08;101233.28;;;20.46;37.11
74228;BME280;62587;52.352;5.006;2022-11-20T03:16:34;101236.81;;;20.46;36.79
74228;BME280;62587;52.352;5.006;2022-11-20T03:18:59;101230.69;;;20.44;36.85
74228;BME280;62587;52.352;5.006;2022-11-20T03:21:25;101224.44;;;20.45;37.33
74228;BME280;62587;52.352;5.006;2022-11-20T03:23:50;101217.41;;;20.44;36.94
74228;BME280;62587;52.352;5.006;2022-11-20T03:26:18;101222.72;;;20.44;37.25
74228;BME280;62587;52.352;5.006;2022-11-20T03:28:52;101217.41;;;20.44;37.05
74228;BME280;62587;52.352;5.006;2022-11-20T03:31:38;101214.84;;;20.43;37.07
74228;BME280;62587;52.352;5.006;2022-11-20T03:34:08;101219.22;;;20.44;36.75
74228;BME280;62587;52.352;5.006;2022-11-20T03:36:34;101219.22;;;20.44;36.83
74228;BME280;62587;52.352;5.006;2022-11-20T03:38:59;101213.06;;;20.43;36.82
74228;BME280;62587;52.352;5.006;2022-11-20T03:41:30;101198.91;;;20.43;37.30
74228;BME280;62587;52.352;5.006;2022-11-20T03:43:58;101204.22;;;20.43;36.78
74228;BME280;62587;52.352;5.006;2022-11-20T03:46:24;101210.50;;;20.42;36.98
74228;BME280;62587;52.352;5.006;2022-11-20T03:48:49;101210.50;;;20.42;36.83
74228;BME280;62587;52.352;5.006;2022-11-20T03:53:46;101209.66;;;20.41;36.82
74228;BME280;62587;52.352;5.006;2022-11-20T03:56:14;101207.94;;;20.40;36.89
74228;BME280;62587;52.352;5.006;2022-11-20T03:58:40;101204.41;;;20.40;36.75
74228;BME280;62587;52.352;5.006;2022-11-20T04:01:15;101207.06;;;20.40;36.74
74228;BME280;62587;52.352;5.006;2022-11-20T04:03:42;101199.94;;;20.40;36.89
74228;BME280;62587;52.352;5.006;2022-11-20T04:06:10;101189.41;;;20.39;36.71
74228;BME280;62587;52.352;5.006;2022-11-20T04:08:36;101187.63;;;20.39;36.81
74228;BME280;62587;52.352;5.006;2022-11-20T04:11:09;101183.13;;;20.40;36.97
74228;BME280;62587;52.352;5.006;2022-11-20T04:13:35;101175.16;;;20.40;37.07
74228;BME280;62587;52.352;5.006;2022-11-20T04:16:00;101168.16;;;20.39;36.95
74228;BME280;62587;52.352;5.006;2022-11-20T04:18:25;101169.94;;;20.38;36.83
74228;BME280;62587;52.352;5.006;2022-11-20T04:20:51;101165.50;;;20.39;37.44
74228;BME280;62587;52.352;5.006;2022-11-20T04:23:16;101171.75;;;20.38;37.07
74228;BME280;62587;52.352;5.006;2022-11-20T04:25:41;101170.81;;;20.39;36.79
74228;BME280;62587;52.352;5.006;2022-11-20T04:28:06;101170.88;;;20.37;37.10
74228;BME280;62587;52.352;5.006;2022-11-20T04:30:32;101167.28;;;20.38;37.21
74228;BME280;62587;52.352;5.006;2022-11-20T04:32:57;101167.28;;;20.38;37.03
74228;BME280;62587;52.352;5.006;2022-11-20T04:35:22;101175.38;;;20.37;36.72
74228;BME280;62587;52.352;5.006;2022-11-20T04:37:51;101172.72;;;20.37;36.57
74228;BME280;62587;52.352;5.006;2022-11-20T04:40:16;101177.06;;;20.38;36.76
74228;BME280;62587;52.352;5.006;2022-11-20T04:42:41;101172.59;;;20.38;36.68
74228;BME280;62587;52.352;5.006;2022-11-20T04:45:07;101164.63;;;20.38;36.98
74228;BME280;62587;52.352;5.006;2022-11-20T04:47:32;101164.75;;;20.37;36.92
74228;BME280;62587;52.352;5.006;2022-11-20T04:49:58;101161.22;;;20.36;36.65
74228;BME280;62587;52.352;5.006;2022-11-20T04:52:23;101156.84;;;20.35;37.13
74228;BME280;62587;52.352;5.006;2022-11-20T04:54:48;101161.31;;;20.35;36.70
74228;BME280;62587;52.352;5.006;2022-11-20T04:57:14;101158.75;;;20.33;36.70
74228;BME280;62587;52.352;5.006;2022-11-20T04:59:39;101155.97;;;20.35;36.82
74228;BME280;62587;52.352;5.006;2022-11-20T05:02:05;101154.19;;;20.35;36.73
74228;BME280;62587;52.352;5.006;2022-11-20T05:04:30;101141.84;;;20.34;36.70
74228;BME280;62587;52.352;5.006;2022-11-20T05:06:55;101135.56;;;20.35;36.93
74228;BME280;62587;52.352;5.006;2022-11-20T05:09:20;101141.84;;;20.34;36.60
74228;BME280;62587;52.352;5.006;2022-11-20T05:11:46;101142.69;;;20.35;37.08
74228;BME280;62587;52.352;5.006;2022-11-20T05:14:11;101137.38;;;20.35;37.02
74228;BME280;62587;52.352;5.006;2022-11-20T05:16:36;101132.16;;;20.33;37.15
74228;BME280;62587;52.352;5.006;2022-11-20T05:19:02;101125.03;;;20.34;36.83
74228;BME280;62587;52.352;5.006;2022-11-20T05:21:30;101128.56;;;20.34;36.81
74228;BME280;62587;52.352;5.006;2022-11-20T05:23:55;101130.25;;;20.35;36.73
74228;BME280;62587;52.352;5.006;2022-11-20T05:26:22;101127.69;;;20.34;36.61
74228;BME280;62587;52.352;5.006;2022-11-20T05:28:48;101133.03;;;20.34;36.94
74228;BME280;62587;52.352;5.006;2022-11-20T05:31:16;101127.69;;;20.34;36.76
74228;BME280;62587;52.352;5.006;2022-11-20T05:33:43;101136.63;;;20.33;36.77
74228;BME280;62587;52.352;5.006;2022-11-20T05:36:10;101126.97;;;20.32;36.96
74228;BME280;62587;52.352;5.006;2022-11-20T05:38:36;101128.75;;;20.31;36.98
74228;BME280;62587;52.352;5.006;2022-11-20T05:41:06;101143.78;;;20.32;36.96
74228;BME280;62587;52.352;5.006;2022-11-20T05:43:36;101147.38;;;20.31;36.91
74228;BME280;62587;52.352;5.006;2022-11-20T05:46:03;101152.69;;;20.31;36.82
74228;BME280;62587;52.352;5.006;2022-11-20T05:48:30;101147.38;;;20.31;36.55
74228;BME280;62587;52.352;5.006;2022-11-20T05:50:57;101146.50;;;20.31;37.03
74228;BME280;62587;52.352;5.006;2022-11-20T05:53:23;101150.16;;;20.30;36.92
74228;BME280;62587;52.352;5.006;2022-11-20T05:55:56;101155.34;;;20.31;37.05
74228;BME280;62587;52.352;5.006;2022-11-20T05:58:22;101161.72;;;20.29;37.00
74228;BME280;62587;52.352;5.006;2022-11-20T06:00:47;101159.91;;;20.29;36.84
74228;BME280;62587;52.352;5.006;2022-11-20T06:03:12;101152.81;;;20.30;36.84
74228;BME280;62587;52.352;5.006;2022-11-20T06:05:38;101148.31;;;20.30;36.68
74228;BME280;62587;52.352;5.006;2022-11-20T06:08:03;101149.16;;;20.31;36.85
74228;BME280;62587;52.352;5.006;2022-11-20T06:10:28;101143.22;;;20.27;36.97
74228;BME280;62587;52.352;5.006;2022-11-20T06:12:57;101142.34;;;20.27;36.63
74228;BME280;62587;52.352;5.006;2022-11-20T06:15:22;101146.69;;;20.28;36.97
74228;BME280;62587;52.352;5.006;2022-11-20T06:17:52;101151.94;;;20.29;36.81
74228;BME280;62587;52.352;5.006;2022-11-20T06:20:17;101145.00;;;20.27;36.64
74228;BME280;62587;52.352;5.006;2022-11-20T06:22:42;101142.44;;;20.25;37.03
74228;BME280;62587;52.352;5.006;2022-11-20T06:25:08;101143.28;;;20.26;36.77
74228;BME280;62587;52.352;5.006;2022-11-20T06:27:33;101140.56;;;20.27;36.94
74228;BME280;62587;52.352;5.006;2022-11-20T06:29:58;101137.13;;;20.25;36.83
74228;BME280;62587;52.352;5.006;2022-11-20T06:32:23;101142.44;;;20.25;37.18
74228;BME280;62587;52.352;5.006;2022-11-20T06:34:49;101140.75;;;20.24;37.08
74228;BME280;62587;52.352;5.006;2022-11-20T06:37:14;101137.22;;;20.24;36.81
74228;BME280;62587;52.352;5.006;2022-11-20T06:39:39;101138.19;;;20.23;36.75
74228;BME280;62587;52.352;5.006;2022-11-20T06:42:05;101138.19;;;20.23;37.04
74228;BME280;62587;52.352;5.006;2022-11-20T06:44:30;101138.19;;;20.23;37.00
74228;BME280;62587;52.352;5.006;2022-11-20T06:46:55;101137.34;;;20.22;36.94
74228;BME280;62587;52.352;5.006;2022-11-20T06:49:21;101138.25;;;20.21;36.59
74228;BME280;62587;52.352;5.006;2022-11-20T06:51:46;101131.13;;;20.22;36.78
74228;BME280;62587;52.352;5.006;2022-11-20T06:54:11;101124.09;;;20.21;37.15
74228;BME280;62587;52.352;5.006;2022-11-20T06:56:37;101118.78;;;20.21;36.81
74228;BME280;62587;52.352;5.006;2022-11-20T06:59:06;101117.09;;;20.20;37.05
74228;BME280;62587;52.352;5.006;2022-11-20T07:01:31;101113.56;;;20.19;36.85
74228;BME280;62587;52.352;5.006;2022-11-20T07:03:57;101116.34;;;20.18;36.82
74228;BME280;62587;52.352;5.006;2022-11-20T07:06:22;101115.38;;;20.19;36.71
74228;BME280;62587;52.352;5.006;2022-11-20T07:08:50;101110.91;;;20.19;36.67
74228;BME280;62587;52.352;5.006;2022-11-20T07:11:15;101113.56;;;20.19;36.62
74228;BME280;62587;52.352;5.006;2022-11-20T07:13:41;101106.53;;;20.18;36.84
74228;BME280;62587;52.352;5.006;2022-11-20T07:16:07;101101.13;;;20.20;36.86
74228;BME280;62587;52.352;5.006;2022-11-20T07:18:33;101095.91;;;20.18;36.81
74228;BME280;62587;52.352;5.006;2022-11-20T07:21:10;101098.56;;;20.18;37.06
74228;BME280;62587;52.352;5.006;2022-11-20T07:23:36;101096.88;;;20.17;36.89
74228;BME280;62587;52.352;5.006;2022-11-20T07:26:05;101106.75;;;20.15;36.66
74228;BME280;62587;52.352;5.006;2022-11-20T07:28:31;101105.78;;;20.16;36.64
74228;BME280;62587;52.352;5.006;2022-11-20T07:30:57;101104.00;;;20.17;36.63
74228;BME280;62587;52.352;5.006;2022-11-20T07:33:22;101104.09;;;20.15;36.90
74228;BME280;62587;52.352;5.006;2022-11-20T07:35:48;101104.84;;;20.17;37.01
74228;BME280;62587;52.352;5.006;2022-11-20T07:38:13;101119.84;;;20.18;36.78
74228;BME280;62587;52.352;5.006;2022-11-20T07:40:38;101113.47;;;20.21;36.48
74228;BME280;62587;52.352;5.006;2022-11-20T07:43:04;101112.53;;;20.22;36.82
74228;BME280;62587;52.352;5.006;2022-11-20T07:45:29;101115.97;;;20.24;36.59
74228;BME280;62587;52.352;5.006;2022-11-20T07:47:54;101109.47;;;20.28;36.29
74228;BME280;62587;52.352;5.006;2022-11-20T07:50:20;101110.88;;;20.33;36.63
74228;BME280;62587;52.352;5.006;2022-11-20T07:52:45;101106.97;;;20.39;36.10
74228;BME280;62587;52.352;5.006;2022-11-20T07:55:11;101101.25;;;20.45;35.98
74228;BME280;62587;52.352;5.006;2022-11-20T07:57:36;101092.88;;;20.51;36.48
74228;BME280;62587;52.352;5.006;2022-11-20T08:00:07;101088.91;;;20.56;36.13
74228;BME280;62587;52.352;5.006;2022-11-20T08:02:36;101085.84;;;20.62;35.82
74228;BME280;62587;52.352;5.006;2022-11-20T08:05:02;101087.25;;;20.68;36.02
74228;BME280;62587;52.352;5.006;2022-11-20T08:07:27;101093.13;;;20.73;36.06
74228;BME280;62587;52.352;5.006;2022-11-20T08:09:52;101091.84;;;20.79;35.79
74228;BME280;62587;52.352;5.006;2022-11-20T08:12:20;101077.47;;;20.81;35.65
74228;BME280;62587;52.352;5.006;2022-11-20T08:15:05;101078.75;;;20.88;35.69
74228;BME280;62587;52.352;5.006;2022-11-20T08:17:30;101092.72;;;20.92;35.47
74228;BME280;62587;52.352;5.006;2022-11-20T08:19:55;101080.88;;;20.96;35.38
74228;BME280;62587;52.352;5.006;2022-11-20T08:22:21;101079.69;;;21.00;35.41
74228;BME280;62587;52.352;5.006;2022-11-20T08:24:46;101078.56;;;21.04;35.17
74228;BME280;62587;52.352;5.006;2022-11-20T08:27:13;101082.84;;;21.06;35.13
74228;BME280;62587;52.352;5.006;2022-11-20T08:29:38;101080.72;;;21.11;35.42
74228;BME280;62587;52.352;5.006;2022-11-20T08:32:03;101083.06;;;21.16;35.25
74228;BME280;62587;52.352;5.006;2022-11-20T08:34:29;101082.81;;;21.19;35.08
74228;BME280;62587;52.352;5.006;2022-11-20T08:36:54;101095.06;;;21.21;35.20
74228;BME280;62587;52.352;5.006;2022-11-20T08:39:19;101087.00;;;21.23;35.16
74228;BME280;62587;52.352;5.006;2022-11-20T08:41:45;101091.25;;;21.25;35.23
74228;BME280;62587;52.352;5.006;2022-11-20T08:44:10;101091.13;;;21.27;35.22
74228;BME280;62587;52.352;5.006;2022-11-20T08:46:40;101083.25;;;21.25;35.30
74228;BME280;62587;52.352;5.006;2022-11-20T08:49:08;101091.13;;;21.27;34.96
74228;BME280;62587;52.352;5.006;2022-11-20T08:51:34;101087.53;;;21.28;35.14
74228;BME280;62587;52.352;5.006;2022-11-20T08:54:00;101085.81;;;21.27;35.09
74228;BME280;62587;52.352;5.006;2022-11-20T08:56:26;101085.19;;;21.23;35.18
74228;BME280;62587;52.352;5.006;2022-11-20T08:58:52;101084.41;;;21.21;35.01
74228;BME280;62587;52.352;5.006;2022-11-20T09:01:18;101083.59;;;21.21;34.96
74228;BME280;62587;52.352;5.006;2022-11-20T09:03:44;101073.88;;;21.20;35.16
74228;BME280;62587;52.352;5.006;2022-11-20T09:06:09;101083.69;;;21.19;35.04
74228;BME280;62587;52.352;5.006;2022-11-20T09:08:35;101076.66;;;21.18;35.21
74228;BME280;62587;52.352;5.006;2022-11-20T09:11:02;101074.09;;;21.17;35.12
74228;BME280;62587;52.352;5.006;2022-11-20T09:13:28;101066.09;;;21.17;35.04
74228;BME280;62587;52.352;5.006;2022-11-20T09:15:58;101068.03;;;21.15;35.12
74228;BME280;62587;52.352;5.006;2022-11-20T09:18:25;101052.16;;;21.13;35.22
74228;BME280;62587;52.352;5.006;2022-11-20T09:20:50;101049.50;;;21.13;33.86
74228;BME280;62587;52.352;5.006;2022-11-20T09:23:16;101044.72;;;21.18;34.13
74228;BME280;62587;52.352;5.006;2022-11-20T09:25:43;101038.00;;;21.25;33.61
74228;BME280;62587;52.352;5.006;2022-11-20T09:28:08;101033.50;;;21.26;33.57
74228;BME280;62587;52.352;5.006;2022-11-20T09:30:34;101035.94;;;21.29;32.86
74228;BME280;62587;52.352;5.006;2022-11-20T09:33:00;101035.72;;;21.32;33.28
74228;BME280;62587;52.352;5.006;2022-11-20T09:35:26;101027.75;;;21.32;33.02
74228;BME280;62587;52.352;5.006;2022-11-20T09:37:51;101026.88;;;21.31;34.07
74228;BME280;62587;52.352;5.006;2022-11-20T09:40:26;101011.03;;;21.30;33.06
74228;BME280;62587;52.352;5.006;2022-11-20T09:48:29;101005.78;;;21.28;33.41
74228;BME280;62587;52.352;5.006;2022-11-20T09:51:39;101014.84;;;21.26;33.36
74228;BME280;62587;52.352;5.006;2022-11-20T09:54:03;101007.09;;;21.23;33.42
74228;BME280;62587;52.352;5.006;2022-11-20T09:56:33;101004.53;;;21.21;33.76
74228;BME280;62587;52.352;5.006;2022-11-20T09:59:02;100991.97;;;21.23;33.97
74228;BME280;62587;52.352;5.006;2022-11-20T10:01:32;101000.78;;;21.24;33.54
74228;BME280;62587;52.352;5.006;2022-11-20T10:04:09;100996.78;;;21.18;33.69
74228;BME280;62587;52.352;5.006;2022-11-20T10:06:56;101007.19;;;21.21;33.28
74228;BME280;62587;52.352;5.006;2022-11-20T10:09:31;100990.25;;;21.22;33.47
74228;BME280;62587;52.352;5.006;2022-11-20T10:12:14;100989.63;;;21.19;33.36
74228;BME280;62587;52.352;5.006;2022-11-20T10:14:58;100983.47;;;21.18;33.45
74228;BME280;62587;52.352;5.006;2022-11-20T10:20:33;100960.31;;;21.19;33.32
74228;BME280;62587;52.352;5.006;2022-11-20T10:25:49;100957.91;;;21.16;33.64
74228;BME280;62587;52.352;5.006;2022-11-20T10:28:33;100948.22;;;21.15;33.54
74228;BME280;62587;52.352;5.006;2022-11-20T10:31:08;100946.28;;;21.17;33.28
74228;BME280;62587;52.352;5.006;2022-11-20T10:33:41;100937.69;;;21.13;33.53
74228;BME280;62587;52.352;5.006;2022-11-20T10:36:27;100933.94;;;21.16;32.93
74228;BME280;62587;52.352;5.006;2022-11-20T10:39:14;100936.47;;;21.17;32.86
74228;BME280;62587;52.352;5.006;2022-11-20T10:41:43;100920.38;;;21.19;32.93
74228;BME280;62587;52.352;5.006;2022-11-20T10:44:26;100924.53;;;21.23;32.51
74228;BME280;62587;52.352;5.006;2022-11-20T10:47:15;100925.88;;;21.28;32.09
74228;BME280;62587;52.352;5.006;2022-11-20T10:49:43;100917.69;;;21.31;31.93
74228;BME280;62587;52.352;5.006;2022-11-20T10:52:13;100909.47;;;21.34;32.25
74228;BME280;62587;52.352;5.006;2022-11-20T10:54:51;100892.31;;;21.38;31.48
74228;BME280;62587;52.352;5.006;2022-11-20T10:57:41;100889.41;;;21.42;32.05
74228;BME280;62587;52.352;5.006;2022-11-20T11:00:13;100885.81;;;21.43;32.68
74228;BME280;62587;52.352;5.006;2022-11-20T11:02:43;100892.09;;;21.42;32.72
74228;BME280;62587;52.352;5.006;2022-11-20T11:07:49;100883.97;;;21.43;32.80
74228;BME280;62587;52.352;5.006;2022-11-20T11:10:18;100876.81;;;21.44;32.49
74228;BME280;62587;52.352;5.006;2022-11-20T11:12:45;100868.97;;;21.42;32.56
74228;BME280;62587;52.352;5.006;2022-11-20T11:15:13;100877.69;;;21.44;32.33
74228;BME280;62587;52.352;5.006;2022-11-20T11:17:46;100870.66;;;21.43;32.29
74228;BME280;62587;52.352;5.006;2022-11-20T11:20:18;100864.59;;;21.41;32.14
74228;BME280;62587;52.352;5.006;2022-11-20T11:22:53;100858.53;;;21.39;32.39
74228;BME280;62587;52.352;5.006;2022-11-20T11:25:32;100868.31;;;21.38;32.56
74228;BME280;62587;52.352;5.006;2022-11-20T11:30:29;100853.03;;;21.29;33.42
74228;BME280;62587;52.352;5.006;2022-11-20T11:33:09;100856.78;;;21.27;32.97
74228;BME280;62587;52.352;5.006;2022-11-20T11:35:44;100847.41;;;21.21;33.13
74228;BME280;62587;52.352;5.006;2022-11-20T11:38:15;100839.25;;;21.12;32.56
74228;BME280;62587;52.352;5.006;2022-11-20T11:40:42;100835.88;;;21.10;33.15
74228;BME280;62587;52.352;5.006;2022-11-20T11:43:17;100834.78;;;21.12;33.44
74228;BME280;62587;52.352;5.006;2022-11-20T11:46:09;100824.06;;;21.14;32.61
74228;BME280;62587;52.352;5.006;2022-11-20T11:51:39;100808.91;;;21.14;32.69
74228;BME280;62587;52.352;5.006;2022-11-20T11:54:43;100804.22;;;21.18;33.05
74228;BME280;62587;52.352;5.006;2022-11-20T11:57:23;100797.81;;;21.20;32.08
74228;BME280;62587;52.352;5.006;2022-11-20T12:00:13;100782.56;;;21.22;32.79
74228;BME280;62587;52.352;5.006;2022-11-20T12:02:49;100775.66;;;21.20;33.17
74228;BME280;62587;52.352;5.006;2022-11-20T12:05:28;100786.19;;;21.21;32.68
74228;BME280;62587;52.352;5.006;2022-11-20T12:10:53;100802.91;;;21.23;32.78
74228;BME280;62587;52.352;5.006;2022-11-20T12:15:59;100773.28;;;21.28;33.16
74228;BME280;62587;52.352;5.006;2022-11-20T12:21:20;100766.00;;;21.30;33.17
74228;BME280;62587;52.352;5.006;2022-11-20T12:26:58;100754.50;;;21.29;33.63
74228;BME280;62587;52.352;5.006;2022-11-20T12:30:01;100743.84;;;21.29;32.90
74228;BME280;62587;52.352;5.006;2022-11-20T12:35:32;100730.53;;;21.29;32.81
74228;BME280;62587;52.352;5.006;2022-11-20T12:38:33;100728.59;;;21.31;33.36
74228;BME280;62587;52.352;5.006;2022-11-20T12:50:29;100712.63;;;21.31;33.68
74228;BME280;62587;52.352;5.006;2022-11-20T12:53:04;100694.69;;;21.33;33.76
74228;BME280;62587;52.352;5.006;2022-11-20T12:55:47;100682.13;;;21.35;33.67
74228;BME280;62587;52.352;5.006;2022-11-20T12:58:27;100688.28;;;21.36;33.64
74228;BME280;62587;52.352;5.006;2022-11-20T13:03:37;100658.16;;;21.35;33.47
74228;BME280;62587;52.352;5.006;2022-11-20T13:06:11;100650.16;;;21.35;33.37
74228;BME280;62587;52.352;5.006;2022-11-20T13:08:39;100649.34;;;21.35;33.66
74228;BME280;62587;52.352;5.006;2022-11-20T13:11:16;100638.69;;;21.35;33.67
74228;BME280;62587;52.352;5.006;2022-11-20T13:13:53;100649.44;;;21.33;33.88
74228;BME280;62587;52.352;5.006;2022-11-20T13:19:05;100670.88;;;21.43;33.95
74228;BME280;62587;52.352;5.006;2022-11-20T13:21:42;100667.50;;;21.52;33.38
74228;BME280;62587;52.352;5.006;2022-11-20T13:29:35;100651.00;;;21.25;34.33
74228;BME280;62587;52.352;5.006;2022-11-20T13:34:38;100646.50;;;21.14;34.67
74228;BME280;62587;52.352;5.006;2022-11-20T13:37:04;100647.84;;;21.09;34.80
74228;BME280;62587;52.352;5.006;2022-11-20T13:39:34;100641.13;;;21.03;35.22
74228;BME280;62587;52.352;5.006;2022-11-20T13:42:02;100638.09;;;20.97;35.10
74228;BME280;62587;52.352;5.006;2022-11-20T13:44:38;100625.97;;;20.93;35.11
74228;BME280;62587;52.352;5.006;2022-11-20T13:47:23;100618.22;;;20.90;35.27
74228;BME280;62587;52.352;5.006;2022-11-20T13:49:48;100606.97;;;20.86;35.40
74228;BME280;62587;52.352;5.006;2022-11-20T13:52:41;100605.50;;;20.82;35.45
74228;BME280;62587;52.352;5.006;2022-11-20T14:00:44;100610.56;;;20.74;35.18
74228;BME280;62587;52.352;5.006;2022-11-20T14:03:20;100596.41;;;20.73;35.21
74228;BME280;62587;52.352;5.006;2022-11-20T14:05:53;100590.25;;;20.73;35.32
74228;BME280;62587;52.352;5.006;2022-11-20T14:08:46;100578.84;;;20.71;35.56
74228;BME280;62587;52.352;5.006;2022-11-20T14:11:19;100563.97;;;20.68;35.36
74228;BME280;62587;52.352;5.006;2022-11-20T14:14:03;100550.78;;;20.67;35.69